createdAt,value
2023-11-15T00:00:32.027Z,2.30
2023-11-15T00:02:37.774Z,3.33
2023-11-15T00:04:39.890Z,2.20
2023-11-15T00:06:42.115Z,2.17
2023-11-15T00:08:44.466Z,3.03
2023-11-15T00:10:46.628Z,2.10
2023-11-15T00:12:48.731Z,2.40
2023-11-15T00:15:09.749Z,3.13
2023-11-15T00:17:12.738Z,5.80
2023-11-15T00:19:15.389Z,2.80
2023-11-15T00:21:36.160Z,2.30
2023-11-15T00:23:57.155Z,3.90
2023-11-15T00:25:59.422Z,1.90
2023-11-15T00:28:02.583Z,2.10
2023-11-15T00:30:06.415Z,2.43
2023-11-15T00:32:09.036Z,2.10
2023-11-15T00:34:11.550Z,2.50
2023-11-15T00:36:13.657Z,2.70
2023-11-15T00:38:16.118Z,3.67
2023-11-15T00:40:18.702Z,1.70
2023-11-15T00:42:20.789Z,2.17
2023-11-15T00:44:22.931Z,3.27
2023-11-15T00:46:25.106Z,2.67
2023-11-15T00:48:27.220Z,2.40
2023-11-15T00:50:29.284Z,2.20
2023-11-15T00:52:31.956Z,2.20
2023-11-15T00:54:34.043Z,5.03
2023-11-15T00:56:36.094Z,2.33
2023-11-15T00:58:57.939Z,3.23
2023-11-15T01:01:01.100Z,2.93
2023-11-15T01:03:27.757Z,4.73
2023-11-15T01:05:30.305Z,3.17
2023-11-15T01:07:32.760Z,6.70
2023-11-15T01:09:37.484Z,5.43
2023-11-15T01:11:39.738Z,2.70
2023-11-15T01:13:41.894Z,5.23
2023-11-15T01:15:44.343Z,3.90
2023-11-15T01:17:46.733Z,2.93
2023-11-15T01:19:49.885Z,2.90
2023-11-15T01:21:54.114Z,2.40
2023-11-15T01:23:56.570Z,3.00
2023-11-15T01:26:17.718Z,2.30
2023-11-15T01:28:19.766Z,8.50
2023-11-15T01:30:22.348Z,2.27
2023-11-15T01:32:24.611Z,3.40
2023-11-15T01:34:26.707Z,2.10
2023-11-15T01:36:28.905Z,2.80
2023-11-15T01:38:49.372Z,2.10
2023-11-15T01:40:51.502Z,2.10
2023-11-15T01:42:53.625Z,3.40
2023-11-15T01:44:55.859Z,5.30
2023-11-15T01:47:16.556Z,2.60
2023-11-15T01:49:20.514Z,5.83
2023-11-15T01:51:22.576Z,3.53
2023-11-15T01:53:26.465Z,7.50
2023-11-15T01:55:29.816Z,4.57
2023-11-15T01:57:32.008Z,4.73
2023-11-15T01:59:34.097Z,5.13
2023-11-15T02:01:55.123Z,9.33
2023-11-15T02:03:57.637Z,3.73
2023-11-15T02:06:00.752Z,3.50
2023-11-15T02:08:02.872Z,3.27
2023-11-15T02:10:05.563Z,3.80
2023-11-15T02:12:08.091Z,4.47
2023-11-15T02:14:10.933Z,5.80
2023-11-15T02:16:14.107Z,6.50
2023-11-15T02:18:18.741Z,3.93
2023-11-15T02:20:21.351Z,6.23
2023-11-15T02:22:47.705Z,4.67
2023-11-15T02:24:49.742Z,4.47
2023-11-15T02:26:51.845Z,3.53
2023-11-15T02:28:55.264Z,4.20
2023-11-15T02:30:57.685Z,4.70
2023-11-15T02:33:19.173Z,4.93
2023-11-15T02:35:21.459Z,9.53
2023-11-15T02:37:42.365Z,4.70
2023-11-15T02:40:10.423Z,3.90
2023-11-15T02:42:12.848Z,4.97
2023-11-15T02:44:14.987Z,4.70
2023-11-15T02:46:24.084Z,8.03
2023-11-15T02:48:26.536Z,5.00
2023-11-15T02:50:31.108Z,8.37
2023-11-15T02:52:34.261Z,7.93
2023-11-15T02:54:36.403Z,9.80
2023-11-15T02:56:38.642Z,5.83
2023-11-15T02:58:40.780Z,5.90
2023-11-15T03:00:43.437Z,4.77
2023-11-15T03:02:45.815Z,4.83
2023-11-15T03:05:07.345Z,8.83
2023-11-15T03:07:28.100Z,6.00
2023-11-15T03:09:48.784Z,11.83
2023-11-15T03:11:50.826Z,4.20
2023-11-15T03:13:53.018Z,8.30
2023-11-15T03:15:56.461Z,6.70
2023-11-15T03:17:58.658Z,8.50
2023-11-15T03:20:00.746Z,3.93
2023-11-15T03:22:02.869Z,7.63
2023-11-15T03:24:05.366Z,4.90
2023-11-15T03:26:07.745Z,12.93
2023-11-15T03:28:10.766Z,5.60
2023-11-15T03:30:32.366Z,8.37
2023-11-15T03:32:34.611Z,9.40
2023-11-15T03:34:36.909Z,5.63
2023-11-15T03:36:39.706Z,7.23
2023-11-15T03:38:42.148Z,7.57
2023-11-15T03:40:44.279Z,7.53
2023-11-15T03:42:49.507Z,5.67
2023-11-15T03:44:51.807Z,6.07
2023-11-15T03:46:53.940Z,8.17
2023-11-15T03:49:14.732Z,5.47
2023-11-15T03:51:16.797Z,5.53
2023-11-15T03:53:18.846Z,3.77
2023-11-15T03:55:21.580Z,6.30
2023-11-15T03:57:23.804Z,9.37
2023-11-15T03:59:25.965Z,6.90
2023-11-15T04:01:28.107Z,10.90
2023-11-15T04:03:30.335Z,9.40
2023-11-15T04:05:33.198Z,6.10
2023-11-15T04:07:35.351Z,7.30
2023-11-15T04:09:37.513Z,5.87
2023-11-15T04:11:41.412Z,4.43
2023-11-15T04:14:02.273Z,8.27
2023-11-15T04:16:04.904Z,10.57
2023-11-15T04:18:07.039Z,5.57
2023-11-15T04:20:09.839Z,11.67
2023-11-15T04:22:14.183Z,6.10
2023-11-15T04:24:18.863Z,10.60
2023-11-15T04:26:22.998Z,6.40
2023-11-15T04:28:25.577Z,5.90
2023-11-15T04:30:27.562Z,10.60
2023-11-15T04:32:48.784Z,5.03
2023-11-15T04:34:51.098Z,6.37
2023-11-15T04:36:53.091Z,3.80
2023-11-15T04:38:55.164Z,4.53
2023-11-15T04:40:57.791Z,4.50
2023-11-15T04:43:18.424Z,5.83
2023-11-15T04:45:20.521Z,4.10
2023-11-15T04:47:41.177Z,12.20
2023-11-15T04:49:44.072Z,11.43
2023-11-15T04:51:46.060Z,6.93
2023-11-15T04:53:48.171Z,12.37
2023-11-15T04:55:50.406Z,8.77
2023-11-15T04:57:52.411Z,5.50
2023-11-15T04:59:56.529Z,2.23
2023-11-15T05:01:59.276Z,4.27
2023-11-15T05:04:01.447Z,6.47
2023-11-15T05:06:03.805Z,11.00
2023-11-15T05:08:24.420Z,3.57
2023-11-15T05:10:27.124Z,4.80
2023-11-15T05:12:47.707Z,3.30
2023-11-15T05:14:49.714Z,3.70
2023-11-15T05:16:51.707Z,6.17
2023-11-15T05:18:53.799Z,5.37
2023-11-15T05:20:55.881Z,3.60
2023-11-15T05:23:16.422Z,9.03
2023-11-15T05:25:19.336Z,4.73
2023-11-15T05:27:23.141Z,2.80
2023-11-15T05:29:25.659Z,9.53
2023-11-15T05:31:46.507Z,2.50
2023-11-15T05:33:48.649Z,1.93
2023-11-15T05:35:50.756Z,2.43
2023-11-15T05:37:53.040Z,2.33
2023-11-15T05:39:55.193Z,2.43
2023-11-15T05:41:57.305Z,4.33
2023-11-15T05:44:00.663Z,3.00
2023-11-15T05:46:21.519Z,1.30
2023-11-15T05:48:23.642Z,1.50
2023-11-15T05:50:25.976Z,1.40
2023-11-15T05:52:28.012Z,3.10
2023-11-15T05:54:30.055Z,2.03
2023-11-15T05:56:33.135Z,1.70
2023-11-15T05:58:35.185Z,6.50
2023-11-15T06:00:37.277Z,4.40
2023-11-15T06:02:57.851Z,2.40
2023-11-15T06:05:00.338Z,2.30
2023-11-15T06:07:02.458Z,1.77
2023-11-15T06:09:07.580Z,1.97
2023-11-15T06:11:11.542Z,1.93
2023-11-15T06:13:16.734Z,2.43
2023-11-15T06:15:19.709Z,1.90
2023-11-15T06:17:41.295Z,2.60
2023-11-15T06:20:06.808Z,1.80
2023-11-15T06:22:09.650Z,2.30
2023-11-15T06:24:14.063Z,2.00
2023-11-15T06:26:16.171Z,2.13
2023-11-15T06:28:18.162Z,3.53
2023-11-15T06:30:20.389Z,2.57
2023-11-15T06:32:24.580Z,2.67
2023-11-15T06:34:26.664Z,3.00
2023-11-15T06:36:29.679Z,2.00
2023-11-15T06:38:31.870Z,3.27
2023-11-15T06:40:34.252Z,3.53
2023-11-15T06:42:37.362Z,2.10
2023-11-15T06:44:39.959Z,1.93
2023-11-15T06:46:42.078Z,2.60
2023-11-15T06:48:44.956Z,3.23
2023-11-15T06:50:47.104Z,1.80
2023-11-15T06:52:49.224Z,2.13
2023-11-15T06:55:12.930Z,4.70
2023-11-15T06:57:15.445Z,3.77
2023-11-15T06:59:18.466Z,2.00
2023-11-15T07:01:20.523Z,3.73
2023-11-15T07:03:23.670Z,2.10
2023-11-15T07:05:25.892Z,2.53
2023-11-15T07:07:47.489Z,2.50
2023-11-15T07:09:49.637Z,2.73
2023-11-15T07:11:53.483Z,2.80
2023-11-15T07:13:56.320Z,3.40
2023-11-15T07:16:02.993Z,2.10
2023-11-15T07:18:05.368Z,2.07
2023-11-15T07:20:11.097Z,2.37
2023-11-15T07:22:13.196Z,2.67
2023-11-15T07:24:15.200Z,3.90
2023-11-15T07:26:17.256Z,2.33
2023-11-15T07:28:20.961Z,2.27
2023-11-15T07:30:23.273Z,1.90
2023-11-15T07:32:25.800Z,3.63
2023-11-15T07:34:29.330Z,2.67
2023-11-15T07:36:31.526Z,5.00
2023-11-15T07:38:36.260Z,3.50
2023-11-15T07:40:38.749Z,2.60
2023-11-15T07:42:41.514Z,2.30
2023-11-15T07:44:44.545Z,2.57
2023-11-15T07:46:48.071Z,2.33
2023-11-15T07:48:51.707Z,1.87
2023-11-15T07:50:54.116Z,4.50
2023-11-15T07:52:56.171Z,1.83
2023-11-15T07:55:01.461Z,1.67
2023-11-15T07:57:22.760Z,2.30
2023-11-15T07:59:27.343Z,2.43
2023-11-15T08:01:29.452Z,2.20
2023-11-15T08:03:31.630Z,3.30
2023-11-15T08:05:33.817Z,2.50
2023-11-15T08:07:37.445Z,4.40
2023-11-15T08:09:58.008Z,3.53
2023-11-15T08:12:00.973Z,2.80
2023-11-15T08:14:07.668Z,6.93
2023-11-15T08:16:13.804Z,3.80
2023-11-15T08:18:16.813Z,1.93
2023-11-15T08:20:37.684Z,4.30
2023-11-15T08:22:41.536Z,2.80
2023-11-15T08:25:02.042Z,2.20
2023-11-15T08:27:04.917Z,3.03
2023-11-15T08:29:07.070Z,3.63
2023-11-15T08:31:09.524Z,2.23
2023-11-15T08:33:30.877Z,6.87
2023-11-15T08:35:36.742Z,2.20
2023-11-15T08:37:57.491Z,1.80
2023-11-15T08:40:01.416Z,1.90
2023-11-15T08:42:07.543Z,1.70
2023-11-15T08:44:10.447Z,1.60
2023-11-15T08:46:13.524Z,1.90
2023-11-15T08:48:19.038Z,2.07
2023-11-15T08:50:21.462Z,3.40
2023-11-15T08:52:25.148Z,2.00
2023-11-15T08:54:27.201Z,2.00
2023-11-15T08:56:32.560Z,2.40
2023-11-15T08:58:55.242Z,3.00
2023-11-15T09:01:02.664Z,2.20
2023-11-15T09:03:05.533Z,1.80
2023-11-15T09:05:07.802Z,2.47
2023-11-15T09:07:12.057Z,4.23
2023-11-15T09:09:15.920Z,2.00
2023-11-15T09:11:18.727Z,2.23
2023-11-15T09:13:20.776Z,2.33
2023-11-15T09:15:25.640Z,2.30
2023-11-15T09:17:49.856Z,2.77
2023-11-15T09:19:57.847Z,3.20
2023-11-15T09:22:03.069Z,4.20
2023-11-15T09:24:06.256Z,6.90
2023-11-15T09:26:14.919Z,2.37
2023-11-15T09:28:19.739Z,2.07
2023-11-15T09:30:22.734Z,1.83
2023-11-15T09:32:26.381Z,5.50
2023-11-15T09:34:28.555Z,4.20
2023-11-15T09:36:50.208Z,2.13
2023-11-15T09:38:54.310Z,1.93
2023-11-15T09:40:56.406Z,5.93
2023-11-15T09:43:01.761Z,2.10
2023-11-15T09:45:05.072Z,2.30
2023-11-15T09:47:08.977Z,1.83
2023-11-15T09:49:16.356Z,1.53
2023-11-15T09:51:21.985Z,3.83
2023-11-15T09:53:25.905Z,2.53
2023-11-15T09:55:28.066Z,4.93
2023-11-15T09:57:30.166Z,1.97
2023-11-15T09:59:34.123Z,1.70
2023-11-15T10:01:36.440Z,3.53
2023-11-15T10:03:42.877Z,7.60
2023-11-15T10:05:58.938Z,2.20
2023-11-15T10:08:14.657Z,2.10
2023-11-15T10:10:24.068Z,1.67
2023-11-15T10:12:32.524Z,2.20
2023-11-15T10:14:36.624Z,1.87
2023-11-15T10:16:40.463Z,3.10
2023-11-15T10:18:42.585Z,2.60
2023-11-15T10:20:45.042Z,2.30
2023-11-15T10:22:48.131Z,2.20
2023-11-15T10:25:06.020Z,1.90
2023-11-15T10:27:12.459Z,2.30
2023-11-15T10:29:14.812Z,2.73
2023-11-15T10:31:19.841Z,4.37
2023-11-15T10:33:22.430Z,3.70
2023-11-15T10:35:32.845Z,4.80
2023-11-15T10:37:47.573Z,1.80
2023-11-15T10:39:49.744Z,2.90
2023-11-15T10:41:51.851Z,3.73
2023-11-15T10:43:55.700Z,2.13
2023-11-15T10:45:58.246Z,2.27
2023-11-15T10:48:05.999Z,1.63
2023-11-15T10:50:14.375Z,5.40
2023-11-15T10:52:16.507Z,2.50
2023-11-15T10:54:19.044Z,1.80
2023-11-15T10:56:21.072Z,1.70
2023-11-15T10:58:23.674Z,2.70
2023-11-15T11:00:26.304Z,3.77
2023-11-15T11:02:32.895Z,2.20
2023-11-15T11:04:35.578Z,3.53
2023-11-15T11:06:51.536Z,2.23
2023-11-15T11:09:13.999Z,2.60
2023-11-15T11:11:33.317Z,2.30
2023-11-15T11:13:35.601Z,3.60
2023-11-15T11:15:38.500Z,1.93
2023-11-15T11:17:44.002Z,3.40
2023-11-15T11:19:48.224Z,3.63
2023-11-15T11:22:09.414Z,3.77
2023-11-15T11:24:16.762Z,3.13
2023-11-15T11:26:35.562Z,2.70
2023-11-15T11:28:59.602Z,2.90
2023-11-15T11:31:19.263Z,5.37
2023-11-15T11:33:22.425Z,3.90
2023-11-15T11:35:36.315Z,4.47
2023-11-15T11:37:48.448Z,3.13
2023-11-15T11:39:50.481Z,4.97
2023-11-15T11:41:52.609Z,4.80
2023-11-15T11:44:00.182Z,6.23
2023-11-15T11:46:16.835Z,3.80
2023-11-15T11:48:27.346Z,3.67
2023-11-15T11:50:29.620Z,3.83
2023-11-15T11:52:31.854Z,4.50
2023-11-15T11:54:34.408Z,5.00
2023-11-15T11:56:36.511Z,6.23
2023-11-15T11:58:40.601Z,3.07
2023-11-15T12:00:42.948Z,4.43
2023-11-15T12:03:00.529Z,3.90
2023-11-15T12:05:06.781Z,3.53
2023-11-15T12:07:10.508Z,4.30
2023-11-15T12:09:12.762Z,3.70
2023-11-15T12:11:18.952Z,2.80
2023-11-15T12:13:21.081Z,7.10
2023-11-15T12:15:25.672Z,5.27
2023-11-15T12:17:38.108Z,4.83
2023-11-15T12:19:44.068Z,3.80
2023-11-15T12:21:46.821Z,3.20
2023-11-15T12:23:49.947Z,4.73
2023-11-15T12:25:53.965Z,6.67
2023-11-15T12:28:01.917Z,5.93
2023-11-15T12:30:05.220Z,3.90
2023-11-15T12:32:09.214Z,5.27
2023-11-15T12:34:12.160Z,6.23
2023-11-15T12:36:14.597Z,6.30
2023-11-15T12:38:16.700Z,8.13
2023-11-15T12:40:22.680Z,6.93
2023-11-15T12:42:28.754Z,8.13
2023-11-15T12:44:43.032Z,7.40
2023-11-15T12:46:50.957Z,4.60
2023-11-15T12:48:53.068Z,6.80
2023-11-15T12:51:02.415Z,6.67
2023-11-15T12:53:09.512Z,5.50
2023-11-15T12:55:11.628Z,5.13
2023-11-15T12:57:15.424Z,7.30
2023-11-15T12:59:18.911Z,8.90
2023-11-15T13:01:21.986Z,4.80
2023-11-15T13:03:27.272Z,8.23
2023-11-15T13:05:30.137Z,5.20
2023-11-15T13:07:33.662Z,8.07
2023-11-15T13:09:35.813Z,10.87
2023-11-15T13:11:40.013Z,6.93
2023-11-15T13:13:44.812Z,11.30
2023-11-15T13:15:46.926Z,9.07
2023-11-15T13:17:50.049Z,7.07
2023-11-15T13:19:52.153Z,8.30
2023-11-15T13:21:54.527Z,5.80
2023-11-15T13:23:57.044Z,7.13
2023-11-15T13:26:03.676Z,5.90
2023-11-15T13:28:09.474Z,6.60
2023-11-15T13:30:12.210Z,6.80
2023-11-15T13:32:15.726Z,7.37
2023-11-15T13:34:20.926Z,6.60
2023-11-15T13:36:24.865Z,6.07
2023-11-15T13:38:27.208Z,9.13
2023-11-15T13:40:29.355Z,6.37
2023-11-15T13:42:34.152Z,5.40
2023-11-15T13:44:36.235Z,5.80
2023-11-15T13:46:39.138Z,6.20
2023-11-15T13:48:41.494Z,7.73
2023-11-15T13:50:43.651Z,7.37
2023-11-15T13:52:45.692Z,6.20
2023-11-15T13:54:48.214Z,10.20
2023-11-15T13:56:50.383Z,8.00
2023-11-15T13:58:52.446Z,8.17
2023-11-15T14:00:54.865Z,9.50
2023-11-15T14:02:57.078Z,8.47
2023-11-15T14:04:59.219Z,11.50
2023-11-15T14:07:01.239Z,7.63
2023-11-15T14:09:07.718Z,12.03
2023-11-15T14:11:10.858Z,9.33
2023-11-15T14:13:12.948Z,5.40
2023-11-15T14:15:19.684Z,10.57
2023-11-15T14:17:24.553Z,6.80
2023-11-15T14:19:27.562Z,7.30
2023-11-15T14:21:31.412Z,12.47
2023-11-15T14:23:34.614Z,7.40
2023-11-15T14:25:37.969Z,6.60
2023-11-15T14:27:40.068Z,5.93
2023-11-15T14:29:42.899Z,7.20
2023-11-15T14:31:45.581Z,7.53
2023-11-15T14:33:47.817Z,6.00
2023-11-15T14:35:50.178Z,6.97
2023-11-15T14:37:53.452Z,8.97
2023-11-15T14:39:55.480Z,9.97
2023-11-15T14:42:00.324Z,9.97
2023-11-15T14:44:04.772Z,7.97
2023-11-15T14:46:07.247Z,11.77
2023-11-15T14:48:11.500Z,9.80
2023-11-15T14:50:15.914Z,9.17
2023-11-15T14:52:22.771Z,10.70
2023-11-15T14:54:24.967Z,8.00
2023-11-15T14:56:29.436Z,9.83
2023-11-15T14:58:31.637Z,7.30
2023-11-15T15:00:35.365Z,12.80
2023-11-15T15:02:37.474Z,11.67
2023-11-15T15:04:43.488Z,9.97
2023-11-15T15:06:49.237Z,8.47
2023-11-15T15:08:51.402Z,10.43
2023-11-15T15:10:55.365Z,7.03
2023-11-15T15:12:57.469Z,6.90
2023-11-15T15:14:59.605Z,6.77
2023-11-15T15:17:02.637Z,7.23
2023-11-15T15:19:11.593Z,10.60
2023-11-15T15:21:16.106Z,10.30
2023-11-15T15:23:18.919Z,12.07
2023-11-15T15:25:21.062Z,6.93
2023-11-15T15:27:23.246Z,10.10
2023-11-15T15:29:27.673Z,5.80
2023-11-15T15:31:30.225Z,9.13
2023-11-15T15:33:32.474Z,10.40
2023-11-15T15:35:34.599Z,9.03
2023-11-15T15:37:36.671Z,7.27
2023-11-15T15:39:38.879Z,5.80
2023-11-15T15:41:40.908Z,13.63
2023-11-15T15:43:47.843Z,8.43
2023-11-15T15:45:50.041Z,8.83
2023-11-15T15:47:52.298Z,7.97
2023-11-15T15:49:57.408Z,8.97
2023-11-15T15:51:59.605Z,9.13
2023-11-15T15:54:01.751Z,9.07
2023-11-15T15:56:05.227Z,17.23
2023-11-15T15:58:07.533Z,13.10
2023-11-15T16:00:10.053Z,14.47
2023-11-15T16:02:14.452Z,20.20
2023-11-15T16:04:17.670Z,11.90
2023-11-15T16:06:23.550Z,18.83
2023-11-15T16:08:25.635Z,17.23
2023-11-15T16:10:27.785Z,18.23
2023-11-15T16:12:41.386Z,18.27
2023-11-15T16:14:43.551Z,18.50
2023-11-15T16:16:49.110Z,13.67
2023-11-15T16:18:52.003Z,12.33
2023-11-15T16:20:54.273Z,11.37
2023-11-15T16:22:57.782Z,10.07
2023-11-15T16:24:59.892Z,12.67
2023-11-15T16:27:04.499Z,12.50
2023-11-15T16:29:07.656Z,10.93
2023-11-15T16:31:09.869Z,13.00
2023-11-15T16:33:12.217Z,16.17
2023-11-15T16:35:15.508Z,23.77
2023-11-15T16:37:18.306Z,16.00
2023-11-15T16:39:25.671Z,16.73
2023-11-15T16:41:27.836Z,22.90
2023-11-15T16:43:31.124Z,16.50
2023-11-15T16:45:33.576Z,15.10
2023-11-15T16:47:37.051Z,17.40
2023-11-15T16:49:39.493Z,18.97
2023-11-15T16:51:41.798Z,14.03
2023-11-15T16:53:43.848Z,16.20
2023-11-15T16:55:46.019Z,14.00
2023-11-15T16:57:48.075Z,18.60
2023-11-15T16:59:50.573Z,20.47
2023-11-15T17:01:52.996Z,17.77
2023-11-15T17:03:55.231Z,20.67
2023-11-15T17:05:57.333Z,24.43
2023-11-15T17:07:59.989Z,20.20
2023-11-15T17:10:02.058Z,18.63
2023-11-15T17:12:09.004Z,20.70
2023-11-15T17:14:12.030Z,19.80
2023-11-15T17:16:14.065Z,19.57
2023-11-15T17:18:18.941Z,24.03
2023-11-15T17:20:21.180Z,18.80
2023-11-15T17:22:25.583Z,20.97
2023-11-15T17:24:30.218Z,25.33
2023-11-15T17:26:32.534Z,18.23
2023-11-15T17:28:34.645Z,15.77
2023-11-15T17:30:37.738Z,13.20
2023-11-15T17:32:40.063Z,18.10
2023-11-15T17:34:43.139Z,16.93
2023-11-15T17:36:45.748Z,15.33
2023-11-15T17:38:47.863Z,14.57
2023-11-15T17:40:49.954Z,15.50
2023-11-15T17:42:52.727Z,14.93
2023-11-15T17:44:57.383Z,15.80
2023-11-15T17:46:59.702Z,13.70
2023-11-15T17:49:01.870Z,18.77
2023-11-15T17:51:08.761Z,15.90
2023-11-15T17:53:10.904Z,17.23
2023-11-15T17:55:15.131Z,14.90
2023-11-15T17:57:17.689Z,14.17
2023-11-15T17:59:19.821Z,17.23
2023-11-15T18:01:22.043Z,14.23
2023-11-15T18:03:24.268Z,13.23
2023-11-15T18:05:26.680Z,12.80
2023-11-15T18:07:28.856Z,12.20
2023-11-15T18:09:32.787Z,11.97
2023-11-15T18:11:34.871Z,10.77
2023-11-15T18:13:36.935Z,14.20
2023-11-15T18:15:39.104Z,14.47
2023-11-15T18:17:41.221Z,9.27
2023-11-15T18:19:43.264Z,9.57
2023-11-15T18:21:45.276Z,11.80
2023-11-15T18:23:47.351Z,9.40
2023-11-15T18:25:49.718Z,12.57
2023-11-15T18:27:51.973Z,9.03
2023-11-15T18:29:54.180Z,8.80
2023-11-15T18:32:02.014Z,5.10
2023-11-15T18:34:04.859Z,5.83
2023-11-15T18:36:10.436Z,8.50
2023-11-15T18:38:12.846Z,6.47
2023-11-15T18:40:18.105Z,4.40
2023-11-15T18:42:20.469Z,4.90
2023-11-15T18:44:22.586Z,3.87
2023-11-15T18:46:24.879Z,4.00
2023-11-15T18:48:27.587Z,4.10
2023-11-15T18:50:32.889Z,5.73
2023-11-15T18:52:35.903Z,4.40
2023-11-15T18:54:38.071Z,3.03
2023-11-15T18:56:40.814Z,4.07
2023-11-15T18:58:45.430Z,3.20
2023-11-15T19:00:47.498Z,7.13
2023-11-15T19:02:49.655Z,3.37
2023-11-15T19:04:51.816Z,3.30
2023-11-15T19:06:53.890Z,4.93
2023-11-15T19:08:56.351Z,4.77
2023-11-15T19:10:58.624Z,3.07
2023-11-15T19:13:00.708Z,4.83
2023-11-15T19:15:02.851Z,3.40
2023-11-15T19:17:07.484Z,5.73
2023-11-15T19:19:10.717Z,3.73
2023-11-15T19:21:15.537Z,4.83
2023-11-15T19:23:18.858Z,4.97
2023-11-15T19:25:21.533Z,8.30
2023-11-15T19:27:23.638Z,5.23
2023-11-15T19:29:25.920Z,4.63
2023-11-15T19:31:28.129Z,4.27
2023-11-15T19:33:30.459Z,6.67
2023-11-15T19:35:32.613Z,4.13
2023-11-15T19:37:38.924Z,5.00
2023-11-15T19:39:41.208Z,5.33
2023-11-15T19:41:43.330Z,5.00
2023-11-15T19:43:46.390Z,17.13
2023-11-15T19:45:53.855Z,23.37
2023-11-15T19:47:56.399Z,9.47
2023-11-15T19:49:59.781Z,13.80
2023-11-15T19:52:09.421Z,9.40
2023-11-15T19:54:11.751Z,8.53
2023-11-15T19:56:13.826Z,10.30
2023-11-15T19:58:16.057Z,10.50
2023-11-15T20:00:18.522Z,12.77
2023-11-15T20:02:21.561Z,17.50
2023-11-15T20:04:23.854Z,25.87
2023-11-15T20:06:27.836Z,37.70
2023-11-15T20:08:30.018Z,68.70
2023-11-15T20:10:32.115Z,37.93
2023-11-15T20:12:34.232Z,13.77
2023-11-15T20:14:36.377Z,11.03
2023-11-15T20:16:38.526Z,66.67
2023-11-15T20:18:43.683Z,46.93
2023-11-15T20:20:45.960Z,20.97
2023-11-15T20:22:52.228Z,31.53
2023-11-15T20:24:55.923Z,18.00
2023-11-15T20:26:58.214Z,25.37
2023-11-15T20:29:00.422Z,26.27
2023-11-15T20:31:03.151Z,27.07
2023-11-15T20:33:05.249Z,18.93
2023-11-15T20:35:07.753Z,41.03
2023-11-15T20:37:10.231Z,28.40
2023-11-15T20:39:21.942Z,25.27
2023-11-15T20:41:27.336Z,30.93
2023-11-15T20:43:30.741Z,16.40
2023-11-15T20:45:32.844Z,14.50
2023-11-15T20:47:34.976Z,13.97
2023-11-15T20:49:39.820Z,13.63
2023-11-15T20:51:48.457Z,14.60
2023-11-15T20:53:50.830Z,11.07
2023-11-15T20:55:53.049Z,9.73
2023-11-15T20:58:00.843Z,11.10
2023-11-15T21:00:12.211Z,22.50
2023-11-15T21:02:15.476Z,12.57
2023-11-15T21:04:22.161Z,11.07
2023-11-15T21:06:25.027Z,6.67
2023-11-15T21:08:27.479Z,8.40
2023-11-15T21:10:29.567Z,9.53
2023-11-15T21:12:32.241Z,9.57
2023-11-15T21:14:34.539Z,6.17
2023-11-15T21:16:40.283Z,6.03
2023-11-15T21:18:42.564Z,4.70
2023-11-15T21:20:44.669Z,8.37
2023-11-15T21:22:46.686Z,4.63
2023-11-15T21:24:49.082Z,6.40
2023-11-15T21:26:54.797Z,10.27
2023-11-15T21:29:00.120Z,6.10
2023-11-15T21:31:02.431Z,8.47
2023-11-15T21:33:04.975Z,5.90
2023-11-15T21:35:14.996Z,6.27
2023-11-15T21:37:18.948Z,9.23
2023-11-15T21:39:21.300Z,5.73
2023-11-15T21:41:23.364Z,8.80
2023-11-15T21:43:25.400Z,5.87
2023-11-15T21:45:27.569Z,8.10
2023-11-15T21:47:30.569Z,10.70
2023-11-15T21:49:32.715Z,4.73
2023-11-15T21:51:34.959Z,8.43
2023-11-15T21:53:37.077Z,8.60
2023-11-15T21:55:39.141Z,9.70
2023-11-15T21:57:41.990Z,9.70
2023-11-15T21:59:44.492Z,12.47
2023-11-15T22:01:46.663Z,30.07
2023-11-15T22:03:48.841Z,7.63
2023-11-15T22:05:51.889Z,10.87
2023-11-15T22:07:54.115Z,6.93
2023-11-15T22:09:56.254Z,9.60
2023-11-15T22:11:58.304Z,13.17
2023-11-15T22:14:00.360Z,7.43
2023-11-15T22:16:02.394Z,11.13
2023-11-15T22:18:05.031Z,11.40
2023-11-15T22:20:08.688Z,6.97
2023-11-15T22:22:10.741Z,10.27
2023-11-15T22:24:12.773Z,10.33
2023-11-15T22:26:16.320Z,9.67
2023-11-15T22:28:18.434Z,8.07
2023-11-15T22:30:21.733Z,13.07
2023-11-15T22:32:26.489Z,6.83
2023-11-15T22:34:28.908Z,11.50
2023-11-15T22:36:31.106Z,11.13
2023-11-15T22:38:33.230Z,7.33
2023-11-15T22:40:35.543Z,7.23
2023-11-15T22:42:38.331Z,8.37
2023-11-15T22:44:40.396Z,9.43
2023-11-15T22:46:42.913Z,6.33
2023-11-15T22:48:45.049Z,12.33
2023-11-15T22:50:47.193Z,6.30
2023-11-15T22:52:49.681Z,10.70
2023-11-15T22:54:51.971Z,7.60
2023-11-15T22:56:54.118Z,9.40
2023-11-15T22:58:56.151Z,13.70
2023-11-15T23:00:58.235Z,8.47
2023-11-15T23:03:10.453Z,9.80
2023-11-15T23:05:13.446Z,7.27
2023-11-15T23:07:21.247Z,13.13
2023-11-15T23:09:26.427Z,18.07
2023-11-15T23:11:31.598Z,9.13
2023-11-15T23:13:33.643Z,9.57
2023-11-15T23:15:35.906Z,10.30
2023-11-15T23:17:38.175Z,6.40
2023-11-15T23:19:40.604Z,10.00
2023-11-15T23:21:51.251Z,13.30
2023-11-15T23:24:01.132Z,9.73
2023-11-15T23:26:07.913Z,14.60
2023-11-15T23:28:10.304Z,5.73
2023-11-15T23:30:13.542Z,5.17
2023-11-15T23:32:15.686Z,9.77
2023-11-15T23:34:19.455Z,13.40
2023-11-15T23:36:21.656Z,8.67
2023-11-15T23:38:23.690Z,4.37
2023-11-15T23:40:30.052Z,7.43
2023-11-15T23:42:32.080Z,8.40
2023-11-15T23:44:36.191Z,9.23
2023-11-15T23:46:39.274Z,9.27
2023-11-15T23:48:42.128Z,8.07
2023-11-15T23:50:45.593Z,7.73
2023-11-15T23:52:54.193Z,5.70
2023-11-15T23:54:56.247Z,5.60
2023-11-15T23:56:59.354Z,9.30
2023-11-15T23:59:01.368Z,8.03
